Flight Track Log - Related Links

Times and Time Zones

All times are in EDT time to prevent confusion due to time zone crossing. See the ELJ733 flight status page for this flight to view local times or setup timezone preferences in your user account.

Time Position Orientation Groundspeed Altitude Reporting Facility
EDT Latitude Longitude Course Direction KTS MPH feet Rate Location/Type
Mon 10:26:38 AM 40.2786 -76.0108 218° Southwest 268 308 7,700  Level New York Center
Mon 10:27:36 AM 40.2356 -76.0867 233° Southwest 282 325 10,400 3,450 Climbing New York Center
Mon 10:28:38 AM 40.1833 -76.1803 234° Southwest 292 336 14,600 2,777 Climbing New York Center
Mon 10:29:37 AM 40.1267 -76.2764 232° Southwest 312 359 16,000 1,050 Climbing New York Center
Mon 10:30:38 AM 40.0458 -76.3569 217° Southwest 411 473 16,700 1,261 Climbing New York Center
Mon 10:31:00 AM 39.8267 -76.5733 218° Southwest  Level FlightAware Approximate
Mon 10:31:36 AM 39.9447 -76.4244 207° Southwest 417 480 18,500  Level New York Center
Mon 10:32:37 AM 39.8469 -76.5058 213° Southwest 422 486 20,800 2,331 Climbing New York Center
Mon 10:33:37 AM 39.7550 -76.5956 217° Southwest 422 486 23,200 2,331 Climbing New York Center
Mon 10:34:38 AM 39.6586 -76.6847 215° Southwest 427 491 25,500 2,231 Climbing New York Center
Mon 10:35:38 AM 39.5603 -76.7736 215° Southwest 427 491 27,700 2,286 Climbing New York Center
Mon 10:36:23 AM 39.4842 -76.8419 215° Southwest 438 504 29,500 2,529 Climbing Washington Center
Mon 10:37:20 AM 39.3975 -76.9639 227° Southwest 432 497 32,000 2,644 Climbing Washington Center
Mon 10:38:21 AM 39.3294 -77.0833 234° Southwest 424 488 34,700 2,380 Climbing Washington Center
Mon 10:39:21 AM 39.2489 -77.1889 225° Southwest 419 482 36,800 1,835 Climbing Washington Center
Mon 10:40:22 AM 39.1772 -77.2517 214° Southwest 402 463 38,400 1,587 Climbing Washington Center
Mon 10:41:22 AM 39.0653 -77.3506 214° Southwest 408 470 40,000 793 Climbing Washington Center
Mon 10:42:23 AM 38.9700 -77.4367 215° Southwest 408 470 40,000  Level Washington Center
Mon 10:43:21 AM 38.8731 -77.5194 214° Southwest 413 475 40,000  Level Washington Center
Mon 10:44:22 AM 38.7778 -77.6075 216° Southwest 424 488 40,000  Level Washington Center
Mon 10:45:23 AM 38.6844 -77.6928 216° Southwest 430 495 40,000  Level Washington Center
Mon 10:46:21 AM 38.5956 -77.7753 216° Southwest 418 481 40,000  Level Washington Center
Mon 10:47:21 AM 38.5150 -77.8472 215° Southwest 410 472 40,000  Level Washington Center
Mon 10:48:22 AM 38.4258 -77.9292 216° Southwest 405 466 40,000  Level Washington Center
Mon 10:49:22 AM 38.3344 -78.0111 215° Southwest 405 466 40,000  Level Washington Center
Mon 10:50:23 AM 38.2475 -78.0875 215° Southwest 400 460 40,000  Level Washington Center
Mon 10:51:21 AM 38.1603 -78.1692 216° Southwest 394 453 40,000  Level Washington Center
Mon 10:52:21 AM 38.0708 -78.2453 214° Southwest 394 453 40,000  Level Washington Center
Mon 10:53:21 AM 37.9794 -78.3289 216° Southwest 387 445 40,000  Level Washington Center
Mon 10:54:23 AM 37.8900 -78.4072 215° Southwest 382 440 40,000  Level Washington Center
Mon 10:55:20 AM 37.8006 -78.4853 215° Southwest 394 453 40,000  Level Washington Center
Mon 10:56:22 AM 37.7111 -78.5608 214° Southwest 394 453 40,000  Level Washington Center
Mon 10:57:22 AM 37.6236 -78.6386 215° Southwest 394 453 40,000  Level Washington Center
Mon 10:58:23 AM 37.5319 -78.7161 214° Southwest 394 453 40,000  Level Washington Center
Mon 10:59:21 AM 37.4403 -78.7933 214° Southwest 394 453 40,000  Level Washington Center
Mon 11:00:22 AM 37.3525 -78.8681 214° Southwest 388 447 40,000  Level Washington Center
Mon 11:01:23 AM 37.2628 -78.9478 215° Southwest 388 447 40,000  Level Washington Center
Mon 11:02:21 AM 37.1689 -79.0272 214° Southwest 398 458 40,000  Level Washington Center
Mon 11:04:23 AM 36.9869 -79.1828 214° Southwest 398 458 40,000  Level Washington Center
Mon 11:05:23 AM 36.8928 -79.2589 213° Southwest 403 464 40,000  Level Washington Center
Mon 11:06:21 AM 36.8028 -79.3378 215° Southwest 403 464 40,000  Level Washington Center
Mon 11:07:22 AM 36.7106 -79.4161 214° Southwest 403 464 40,000  Level Washington Center
Mon 11:08:22 AM 36.6183 -79.4944 214° Southwest 403 464 40,000  Level Washington Center
Mon 11:10:56 AM 36.3839 -79.6933 214° Southwest 404 465 40,000  Level Atlanta Center
Mon 11:11:56 AM 36.2928 -79.7678 213° Southwest 409 471 40,000  Level Atlanta Center
Mon 11:12:56 AM 36.2033 -79.8419 214° Southwest 402 463 40,000  Level Atlanta Center
Mon 11:13:56 AM 36.1164 -79.9158 214° Southwest 387 445 40,000  Level Atlanta Center
Mon 11:15:56 AM 35.9344 -80.0328 208° Southwest 376 433 40,000  Level Atlanta Center
Mon 11:16:56 AM 35.8236 -80.0869 202° Southwest 396 456 40,000  Level Atlanta Center
Mon 11:17:56 AM 35.7331 -80.1272 200° South 396 456 40,000  Level Atlanta Center
Mon 11:18:56 AM 35.6189 -80.1456 187° South 384 442 40,000  Level Atlanta Center
Mon 11:19:56 AM 35.5150 -80.1531 183° South 384 442 40,000  Level Atlanta Center
Mon 11:20:56 AM 35.4128 -80.1553 181° South 384 442 40,000  Level Atlanta Center
Mon 11:21:56 AM 35.3003 -80.1581 181° South 384 442 40,000 50 Level Atlanta Center
Mon 11:22:56 AM 35.1917 -80.1606 181° South 394 453 40,100 813 Climbing Atlanta Center
Mon 11:24:31 AM 35.0275 -80.1803 186° South 413 475 42,100 968 Climbing Jacksonville Center
Mon 11:25:31 AM 34.9308 -80.2389 206° Southwest 395 455 42,600 450 Climbing Jacksonville Center
Mon 11:26:31 AM 34.8319 -80.3003 207° Southwest 395 455 43,000 200 Climbing Jacksonville Center
Mon 11:27:31 AM 34.7269 -80.3664 207° Southwest 397 457 43,000  Level Jacksonville Center
Mon 11:28:31 AM 34.6217 -80.4200 203° Southwest 402 463 43,000  Level Jacksonville Center
Mon 11:29:31 AM 34.5097 -80.4611 197° South 414 476 43,000  Level Jacksonville Center
Mon 11:30:31 AM 34.4042 -80.5044 199° South 414 476 43,000  Level Jacksonville Center
Mon 11:31:31 AM 34.2967 -80.5500 199° South 409 471 43,000  Level Jacksonville Center
Mon 11:32:31 AM 34.1869 -80.5931 198° South 409 471 43,000  Level Jacksonville Center
Mon 11:33:31 AM 34.0814 -80.6386 200° South 409 471 43,000  Level Jacksonville Center
Mon 11:34:31 AM 33.9756 -80.6789 198° South 409 471 43,000  Level Jacksonville Center
Mon 11:35:31 AM 33.8700 -80.7214 198° South 399 459 43,000  Level Jacksonville Center
Mon 11:37:31 AM 33.6628 -80.8064 199° South 399 459 43,000  Level Jacksonville Center
Mon 11:38:31 AM 33.5528 -80.8489 198° South 404 465 43,000  Level Jacksonville Center
Mon 11:39:31 AM 33.4492 -80.8911 199° South 404 465 43,000  Level Jacksonville Center
Mon 11:41:31 AM 33.2311 -80.9756 198° South 404 465 43,000  Level Jacksonville Center
Mon 11:42:31 AM 33.1233 -81.0175 198° South 404 465 43,000  Level Jacksonville Center
Mon 11:44:31 AM 32.9075 -81.1061 199° South 404 465 43,000  Level Jacksonville Center
Mon 11:45:31 AM 32.7975 -81.1453 197° South 404 465 43,000  Level Jacksonville Center
Mon 11:46:31 AM 32.6917 -81.1869 198° South 404 465 43,000  Level Jacksonville Center
Mon 11:47:31 AM 32.5981 -81.2256 199° South 404 465 43,000  Level Jacksonville Center
Mon 11:48:31 AM 32.4819 -81.2697 198° South 397 457 43,000  Level Jacksonville Center
Mon 11:49:31 AM 32.3800 -81.3083 198° South 409 471 43,000  Level Jacksonville Center
Mon 11:50:31 AM 32.2739 -81.3469 197° South 414 476 43,000  Level Jacksonville Center
Mon 11:51:31 AM 32.1597 -81.3981 201° Southwest 402 463 43,000  Level Jacksonville Center
Mon 11:52:32 AM 32.0600 -81.4339 197° South 418 481 43,000  Level Jacksonville Center
Mon 11:53:31 AM 31.9436 -81.4750 197° South 414 476 43,000  Level Jacksonville Center
Mon 11:54:31 AM 31.8458 -81.5131 198° South 414 476 43,000  Level Jacksonville Center
Mon 11:55:31 AM 31.7272 -81.5589 198° South 414 476 43,000  Level Jacksonville Center
Mon 11:56:31 AM 31.6192 -81.5972 197° South 417 480 43,000  Level Jacksonville Center
Mon 11:57:31 AM 31.5172 -81.6375 199° South 417 480 43,000  Level Jacksonville Center
Mon 11:58:31 AM 31.3986 -81.6828 198° South 422 486 43,000  Level Jacksonville Center
Mon 11:59:31 AM 31.2906 -81.7256 199° South 415 478 43,000  Level Jacksonville Center
Mon 12:00:31 PM 31.1803 -81.7658 197° South 416 479 43,000  Level Jacksonville Center
Mon 12:01:31 PM 31.0700 -81.8083 198° South 416 479 43,000  Level Jacksonville Center
Mon 12:02:31 PM 30.9575 -81.8483 197° South 421 484 43,000  Level Jacksonville Center
Mon 12:03:31 PM 30.8492 -81.8883 198° South 416 479 43,000  Level Jacksonville Center
Mon 12:04:31 PM 30.7411 -81.9306 199° South 416 479 43,000 -50 Level Jacksonville Center
Mon 12:05:31 PM 30.6328 -81.9703 198° South 416 479 42,900  Descending Jacksonville Center
Mon 12:06:31 PM 30.5347 -82.0003 195° South 411 473 43,000 50 Climbing Jacksonville Center
Mon 12:07:31 PM 30.4286 -82.0397 198° South 411 473 43,000 -50 Level Jacksonville Center
Mon 12:08:31 PM 30.3203 -82.0792 197° South 411 473 42,900  Descending Jacksonville Center
Mon 12:09:31 PM 30.2100 -82.1211 198° South 416 479 43,000 50 Climbing Jacksonville Center
Mon 12:10:31 PM 30.0950 -82.1147 177° South 416 479 43,000  Level Jacksonville Center
Mon 12:11:31 PM 29.9739 -82.0942 172° South 419 482 43,000 -150 Level Jacksonville Center
Mon 12:12:31 PM 29.8589 -82.0711 170° South 430 495 42,700 -1,200 Descending Jacksonville Center
Mon 12:13:31 PM 29.7439 -82.0411 167° South 430 495 40,600 -2,300 Descending Jacksonville Center
Mon 12:14:31 PM 29.6206 -82.0206 172° South 430 495 38,100 -2,500 Descending Jacksonville Center
Mon 12:15:31 PM 29.4992 -81.9978 171° South 435 501 35,600 -1,550 Descending Jacksonville Center
Mon 12:16:31 PM 29.3800 -81.9750 171° South 440 506 35,000 -300 Descending Jacksonville Center
Mon 12:17:31 PM 29.2653 -81.9522 170° South 433 498 35,000  Level Jacksonville Center
Mon 12:18:31 PM 29.1481 -81.9250 169° South 428 493 35,000 -878 Level Jacksonville Center
Mon 12:20:15 PM 28.9236 -81.8814 170° South 472 543 32,600 -1,482 Descending Miami Center
Mon 12:21:17 PM 28.7994 -81.8564 170° South 461 531 30,900 -1,806 Descending Miami Center
Mon 12:23:00 PM 28.6155 -81.8388 177° South  Level FlightAware Approximate
Mon 12:23:21 PM 28.5539 -81.8081 177° South 443 510 27,000  Level Miami Center
Mon 12:24:23 PM 28.4367 -81.7817 169° South 433 498 26,800 -871 Descending Miami Center
Mon 12:25:25 PM 28.2961 -81.7522 170° South 450 518 25,200 -1,403 Descending Miami Center
Mon 12:26:27 PM 28.1667 -81.7244 169° South 469 540 23,900 -1,258 Descending Miami Center
Mon 12:27:29 PM 28.0392 -81.6983 170° South 469 540 22,600 -1,258 Descending Miami Center
Mon 12:28:31 PM 27.9192 -81.6728 169° South 450 518 21,300 -1,452 Descending Miami Center
Mon 12:29:33 PM 27.7744 -81.6569 174° South 439 505 19,600 -1,548 Descending Miami Center
Mon 12:30:35 PM 27.6489 -81.6569 180° South 433 498 18,100 -1,258 Descending Miami Center
Mon 12:31:37 PM 27.5425 -81.6575 180° South 433 498 17,000 -581 Descending Miami Center
Mon 12:32:39 PM 27.4283 -81.6475 176° South 410 472 16,900 -435 Descending Miami Center
Mon 12:33:41 PM 27.3033 -81.5961 160° South 397 457 16,100 -1,597 Descending Miami Center
Mon 12:34:43 PM 27.1939 -81.5536 161° South 413 475 13,600 -2,468 Descending Miami Center
Mon 12:35:45 PM 27.0872 -81.5131 161° South 402 463 11,000 -1,742 Descending Miami Center
Mon 12:36:47 PM 26.9839 -81.4700 160° South 347 399 10,000 -484 Descending Miami Center
Mon 12:37:49 PM 26.9083 -81.4322 156° South 301 346 10,000  Level Miami Center
Mon 12:38:50 PM 26.8286 -81.3914 155° Southeast 296 341 10,000 -390 Level Miami Center
Mon 12:39:52 PM 26.7506 -81.3894 179° South 289 333 9,200 -1,548 Descending Miami Center
Mon 12:40:54 PM 26.6678 -81.4039 189° South 284 327 6,800 -2,177 Descending Miami Center
Mon 12:41:56 PM 26.6183 -81.4675 229° Southwest 275 316 4,700 -1,355 Descending Miami Center
Mon 12:42:58 PM 26.5778 -81.5336 236° Southwest 262 302 4,000 -339 Descending Miami Center
Mon 12:44:00 PM 26.5322 -81.6031 234° Southwest 260 299 4,000  Level Miami Center
Mon 12:45:02 PM 26.4886 -81.6694 234° Southwest 263 303 4,000  Level Miami Center
Mon 12:46:04 PM 26.4431 -81.7394 234° Southwest 258 297 4,000  Level Miami Center
Mon 12:47:06 PM 26.4028 -81.8014 234° Southwest 252 290 4,000 -339 Level Miami Center
Mon 12:48:08 PM 26.3642 -81.8722 239° Southwest 256 295 3,300 -488 Descending Miami Center
Mon 12:49:09 PM 26.4083 -81.9061 326° Northwest 223 257 3,000 -390 Descending Miami Center
Mon 12:50:11 PM 26.4603 -81.8719 30° Northeast 204 235 2,500 -871 Descending Miami Center
Mon 12:52:15 PM 26.5206 -81.7797 54° Northeast 166 191 300 2,419 Descending Miami Center
Mon 12:53:17 PM 26.5353 -81.7578 53° Northeast 76 87 10,000 9,387 Climbing Miami Center
Mon 12:55:00 PM 26.5333 -81.7500 45° Northeast  Level FlightAware Approximate

Login

Don't have an account? Register now (free) for customized features, flight alerts, and more!